Latest Coastal Weather Observations for Willis Island

IDQ60701

Issued at 2:01 am EST Friday 29 May 2015 (issued every 10 minutes, with the page automatically refreshed every 10 minutes)

About coastal observations | Map of coastal stations | Coastal observations for QLD | Marine services | Other Formats
Station Details ID: 200283 Name: WILLIS ISLAND Lat: -16.29 Lon: 149.97 Height: 9.29 m
Data from the previous 72 hours. | See also: Recent months at Willis Island
Date/Time
EST
Temp

°C
Wind Pressure Rain
since 9am
mm
Weather Cloud Vis
km
Sea
Height
m
Swell
Dir
 
Speed
knots
Gust
knots
hPa Trend Height
m
Period
s
Dir
29/02:00am 25.3 ESE 20 24 1016.7 - 0.0 - - - - - - -
29/01:30am 25.3 ESE 20 25 1016.9 - 0.0 - - - - - - -
29/01:00am 25.5 ESE 21 24 1017.2 - 0.0 - - - - - - -
29/12:30am 25.5 ESE 21 24 1017.5 - 0.0 - - - - - - -
29/12:00am 25.7 ESE 21 25 1017.6 - 0.0 - - - - - - -
 
Date/Time
EST
Temp

°C
Wind Pressure Rain
since 9am
mm
Weather Cloud Vis
km
Sea
Height
m
Swell
Dir
 
Speed
knots
Gust
knots
hPa Trend Height
m
Period
s
Dir
28/11:30pm 25.7 ESE 22 25 1017.8 - 0.0 - - - - - - -
28/11:00pm 25.7 SE 22 27 1017.9 - 0.0 - - - - - - -
28/10:30pm 25.7 ESE 23 26 1018.0 - 0.0 - - - - - - -
28/10:00pm 25.7 ESE 23 27 1018.0 - 0.0 - - - - - - -
28/09:30pm 25.9 ESE 22 25 1018.1 - 0.0 - - - - - - -
28/09:00pm 25.9 ESE 21 26 1017.9 R 0.0 Distant precip. Partly cloudy 30 1 - - -
28/08:30pm 25.9 E 21 25 1017.7 - 0.0 - - - - - - -
28/08:00pm 25.8 ESE 21 24 1017.6 - 0.0 - - - - - - -
28/07:30pm 25.8 ESE 22 25 1017.2 - 0.0 - - - - - - -
28/07:00pm 25.8 ESE 21 24 1016.8 - 0.0 - - - - - - -
28/06:30pm 25.8 ESE 21 25 1016.4 - 0.0 - - - - - - -
28/06:00pm 25.9 ESE 20 23 1016.1 S 0.0 Distant precip. Mostly cloudy 35 1 1.2 9 SE
28/05:30pm 26.1 ESE 20 23 1015.9 - 0.0 - - - - - - -
28/05:00pm 26.2 ESE 19 22 1015.7 - 0.0 - - - - - - -
28/04:30pm 26.3 ESE 18 21 1015.4 - 0.0 - - - - - - -
28/04:00pm 26.7 E 17 20 1015.2 - 0.0 - - - - - - -
28/03:30pm 27.1 ESE 18 22 1015.0 - 0.0 - - - - - - -
28/03:00pm 27.3 ESE 17 20 1014.9 R 0.0 Fine Mostly cloudy 35 2 1.5 8 SE
28/02:30pm 27.5 ESE 17 20 1015.1 - 0.0 - - - - - - -
28/02:00pm 27.8 ESE 18 20 1015.2 - 0.0 - - - - - - -
28/01:30pm 27.9 ESE 17 21 1015.5 - 0.0 - - - - - - -
28/01:00pm 27.6 ESE 18 20 1015.6 - 0.0 - - - - - - -
28/12:30pm 28.0 ESE 18 21 1016.0 - 0.0 - - - - - - -
28/12:00pm 27.3 ESE 19 21 1016.3 F 0.0 Fine Mostly cloudy 35 2 2.0 2 SE
28/11:30am 27.5 ESE 18 21 1016.8 - 0.0 - - - - - - -
28/11:00am 27.3 ESE 18 21 1017.1 - 0.0 - - - - - - -
28/10:30am 27.4 ESE 19 23 1017.4 - 0.0 - - - - - - -
28/10:00am 27.3 ESE 18 21 1017.5 - 0.0 - - - - - - -
28/09:30am 27.5 ESE 18 21 1017.7 - 0.0 - - - - - - -
28/09:00am 26.9 ESE 19 22 1017.7 R 0.6 Fine Mostly cloudy 35 2 1.3 7 SE
28/08:30am 26.8 ESE 19 21 1017.7 - 0.6 - - - - - - -
28/08:00am 26.2 ESE 18 22 1017.5 - 0.6 - - - - - - -
28/07:30am 25.9 ESE 19 22 1017.3 - 0.6 - - - - - - -
28/07:00am 25.9 ESE 19 22 1016.9 - 0.6 - - - - - - -
28/06:30am 25.7 ESE 20 23 1016.5 - 0.6 - - - - - - -
28/06:00am 25.7 ESE 21 24 1016.1 R 0.6 Fine Mostly cloudy 30 1 0.7 7 SE
28/05:30am 25.7 ESE 21 23 1015.7 - 0.6 - - - - - - -
28/05:00am 25.6 ESE 21 24 1015.4 - 0.6 - - - - - - -
28/04:30am 25.7 ESE 21 24 1015.2 - 0.6 - - - - - - -
28/04:00am 25.7 ESE 20 23 1015.0 - 0.6 - - - - - - -
28/03:30am 25.7 ESE 21 25 1015.0 - 0.6 - - - - - - -
28/03:00am 25.7 ESE 21 25 1015.0 - 0.6 - - - - - - -
28/02:30am 25.7 ESE 21 25 1015.0 - 0.6 - - - - - - -
28/02:00am 25.6 ESE 21 25 1015.3 - 0.6 - - - - - - -
28/01:30am 25.7 ESE 22 27 1015.6 - 0.6 - - - - - - -
28/01:00am 25.8 ESE 21 26 1016.0 - 0.6 - - - - - - -
28/12:30am 25.8 ESE 22 25 1016.3 - 0.6 - - - - - - -
28/12:00am 25.7 ESE 21 25 1016.5 - 0.6 - - - - - - -
 
Date/Time
EST
Temp

°C
Wind Pressure Rain
since 9am
mm
Weather Cloud Vis
km
Sea
Height
m
Swell
Dir
 
Speed
knots
Gust
knots
hPa Trend Height
m
Period
s
Dir
27/11:30pm 25.8 ESE 20 23 1016.5 - 0.6 - - - - - - -
27/11:00pm 25.7 ESE 23 26 1016.8 - 0.6 - - - - - - -
27/10:30pm 25.7 ESE 24 27 1016.9 - 0.4 - - - - - - -
27/10:00pm 25.7 ESE 22 27 1017.0 - 0.4 - - - - - - -
27/09:30pm 25.7 SE 21 26 1017.0 - 0.4 - - - - - - -
27/09:00pm 25.7 SE 23 27 1016.8 F 0.4 Distant precip. Mostly cloudy 20 1 - - SE
27/08:30pm 25.6 ESE 25 29 1016.5 - 0.4 - - - - - - -
27/08:00pm 25.6 ESE 23 27 1016.5 - 0.4 - - - - - - -
27/07:30pm 25.5 ESE 24 27 1016.3 - 0.4 - - - - - - -
27/07:00pm 24.8 SE 25 29 1016.1 - 0.4 - - - - - - -
27/06:30pm 25.3 ESE 22 26 1015.7 - 0.4 - - - - - - -
27/06:00pm 24.8 SE 20 25 1015.6 F 0.4 Showers Cloudy 15 2 1.8 8 SE
27/05:30pm 25.1 ESE 21 27 1015.2 - 0.4 - - - - - - -
27/05:15pm 24.4 E 21 31 1015.1 - 0.0 - - - - - - -
27/05:00pm 24.3 E 24 29 1014.8 - 0.0 - - - - - - -
27/04:49pm 24.9 E 25 27 1014.7 - 0.0 - - - - - - -
27/04:30pm 26.1 ESE 22 26 1014.7 - 0.0 - - - - - - -
27/04:00pm 26.1 ESE 23 26 1014.5 - 0.0 - - - - - - -
27/03:30pm 26.1 ESE 24 28 1014.5 - 0.0 - - - - - - -
27/03:00pm 26.4 SE 21 25 1014.6 F 0.0 Distant precip. Mostly cloudy 25 2 1.8 8 SE
27/02:30pm 26.5 ESE 21 24 1014.8 - 0.0 - - - - - - -
27/02:00pm 26.6 ESE 21 24 1014.8 - 0.0 - - - - - - -
27/01:30pm 26.3 ESE 22 25 1015.0 - 0.0 - - - - - - -
27/01:00pm 27.4 ESE 20 25 1015.3 - 0.0 - - - - - - -
27/12:30pm 26.9 ESE 20 24 1015.8 - 0.0 - - - - - - -
27/12:00pm 27.1 ESE 21 24 1016.4 R 0.0 Distant precip. Mostly cloudy 30 2 1.5 8 SE
27/11:30am 27.1 SE 19 23 1016.7 - 0.0 - - - - - - -
27/11:00am 27.1 SE 21 24 1016.9 - 0.0 - - - - - - -
27/10:30am 26.4 SE 21 24 1017.2 - 0.0 - - - - - - -
27/10:00am 26.6 ESE 19 23 1017.6 - 0.0 - - - - - - -
27/09:30am 26.9 ESE 17 19 1017.5 - 0.0 - - - - - - -
27/09:00am 25.6 ESE 21 24 1017.4 R 1.8 Recent precip. Mostly cloudy 25 2 1.5 10 SE
27/08:30am 24.5 ESE 18 23 1017.4 - 1.8 - - - - - - -
27/08:07am 24.8 E 23 27 1016.9 - 1.0 - - - - - - -
27/08:00am 25.7 ESE 19 22 1017.0 - 1.0 - - - - - - -
27/07:30am 25.0 SE 20 24 1016.6 - 1.0 - - - - - - -
27/07:00am 25.3 SE 20 23 1016.3 - 0.4 - - - - - - -
27/06:30am 24.9 SE 21 25 1016.0 - 0.2 - - - - - - -
27/06:00am 25.4 SE 20 23 1015.7 F 0.2 Distant precip. Mostly cloudy 30 1 1.2 9 SE
27/05:30am 24.9 ESE 22 28 1015.6 - 0.2 - - - - - - -
27/05:00am 25.6 SE 21 24 1015.3 - 0.2 - - - - - - -
27/04:30am 25.6 SE 21 25 1015.4 - 0.2 - - - - - - -
27/04:00am 25.6 SE 23 27 1015.5 - 0.2 - - - - - - -
27/03:30am 25.5 ESE 22 25 1015.6 - 0.2 - - - - - - -
27/03:00am 25.4 SE 21 25 1015.6 - 0.2 - - - - - - -
27/02:30am 25.2 ESE 22 25 1015.7 - 0.2 - - - - - - -
27/02:00am 25.4 ESE 22 26 1015.9 - 0.2 - - - - - - -
27/01:30am 25.1 SE 22 25 1016.4 - 0.2 - - - - - - -
27/01:00am 25.6 SE 23 27 1016.8 - 0.2 - - - - - - -
27/12:30am 25.6 SE 23 27 1016.9 - 0.2 - - - - - - -
27/12:00am 25.6 SE 22 26 1017.2 - 0.2 - - - - - - -
 
Date/Time
EST
Temp

°C
Wind Pressure Rain
since 9am
mm
Weather Cloud Vis
km
Sea
Height
m
Swell
Dir
 
Speed
knots
Gust
knots
hPa Trend Height
m
Period
s
Dir
26/11:30pm 25.4 ESE 22 26 1017.4 - 0.2 - - - - - - -
26/11:00pm 24.4 SE 22 25 1017.6 - 0.2 - - - - - - -
26/10:30pm 25.5 ESE 21 25 1017.7 - 0.2 - - - - - - -
26/10:00pm 24.9 ESE 21 25 1017.9 - 0.2 - - - - - - -
26/09:30pm 25.7 SE 19 22 1018.0 - 0.2 - - - - - - -
26/09:00pm 25.1 SE 21 24 1017.9 F 0.2 Distant precip. Mostly cloudy 25 1 - - SE
26/08:30pm 25.6 SE 20 25 1017.8 - 0.2 - - - - - - -
26/08:00pm 25.6 SE 19 22 1017.6 - 0.2 - - - - - - -
26/07:30pm 25.5 SE 19 22 1017.6 - 0.2 - - - - - - -
26/07:00pm 25.4 SE 20 24 1017.3 - 0.2 - - - - - - -
26/06:30pm 25.2 SE 21 23 1017.0 - 0.2 - - - - - - -
26/06:00pm 25.5 SE 20 23 1016.7 F 0.2 Fine Partly cloudy 25 1 1.3 7 SE
26/05:30pm 25.5 SE 22 25 1016.5 - 0.2 - - - - - - -
26/05:00pm 25.8 SE 21 25 1016.4 - 0.2 - - - - - - -
26/04:30pm 25.8 SE 20 25 1016.4 - 0.2 - - - - - - -
26/04:00pm 26.0 SE 21 25 1016.1 - 0.2 - - - - - - -
26/03:30pm 26.4 SE 21 23 1016.2 - 0.2 - - - - - - -
26/03:00pm 26.6 SE 21 26 1016.4 F 0.2 Fine Mostly clear 30 2 2.0 6 SE
26/02:30pm 27.1 SE 21 25 1016.5 - 0.2 - - - - - - -
26/02:00pm 27.1 SE 22 26 1016.8 - 0.2 - - - - - - -
26/01:30pm 27.2 SE 22 25 1017.0 - 0.2 - - - - - - -
26/01:00pm 27.2 SE 22 27 1017.4 - 0.2 - - - - - - -
26/12:30pm 27.1 SE 24 29 1018.0 - 0.2 - - - - - - -
26/12:00pm 27.1 SE 23 28 1018.3 F 0.2 Fine Partly cloudy 35 2 2.0 8 SE
26/11:30am 27.2 SE 23 28 1018.7 - 0.2 - - - - - - -
26/11:00am 27.4 ESE 23 26 1019.2 - 0.2 - - - - - - -
26/10:30am 26.9 ESE 23 27 1019.5 - 0.0 - - - - - - -
26/10:00am 27.0 ESE 23 26 1019.9 - 0.0 - - - - - - -
26/09:30am 26.3 ESE 24 28 1020.0 - 0.0 - - - - - - -
26/09:00am 25.8 ESE 24 27 1019.9 R 1.4 Fine Partly cloudy 30 2 2.2 9 SE
26/08:30am 26.0 ESE 24 28 1019.5 - 1.4 - - - - - - -
26/08:00am 25.8 ESE 24 28 1019.2 - 1.4 - - - - - - -
26/07:30am 25.8 ESE 24 28 1019.0 - 1.4 - - - - - - -
26/07:00am 25.3 ESE 25 28 1018.6 - 1.4 - - - - - - -
26/06:30am 25.2 ESE 25 29 1018.3 - 1.4 - - - - - - -
26/06:00am 25.2 ESE 24 27 1018.2 F 1.4 Distant precip. Mostly clear 30 2 2.0 9 SE
26/05:30am 25.2 SE 24 27 1018.1 - 1.4 - - - - - - -
26/05:00am 25.3 SE 24 30 1017.9 - 1.4 - - - - - - -
26/04:30am 25.3 ESE 23 28 1017.9 - 1.4 - - - - - - -
26/04:00am 25.3 ESE 25 29 1018.0 - 1.4 - - - - - - -
26/03:30am 25.2 ESE 24 27 1017.8 - 1.4 - - - - - - -
26/03:00am 25.5 ESE 23 27 1017.9 - 1.4 - - - - - - -
26/02:30am 25.5 ESE 23 26 1018.0 - 1.4 - - - - - - -

Other Formats:

Comma delimited format used in spreadsheet applications
http://www.bom.gov.au/fwo/IDQ60701/IDQ60701.94299.axf

JavaScript Object Notation format (JSON) in row-major order
http://www.bom.gov.au/fwo/IDQ60701/IDQ60701.94299.json